sensor_id;sensor_type;location;lat;lon;timestamp;pressure;altitude;pressure_sealevel;temperature;humidity
21779;BME280;11050;52.222;20.916;2022-12-20T00:01:29;100885.03;;;0.37;100.00
21779;BME280;11050;52.222;20.916;2022-12-20T00:03:58;100878.28;;;0.41;100.00
21779;BME280;11050;52.222;20.916;2022-12-20T00:06:24;100872.66;;;0.51;100.00
21779;BME280;11050;52.222;20.916;2022-12-20T00:08:57;100870.25;;;0.56;100.00
21779;BME280;11050;52.222;20.916;2022-12-20T00:11:24;100875.50;;;0.57;100.00
21779;BME280;11050;52.222;20.916;2022-12-20T00:13:50;100867.06;;;0.52;100.00
21779;BME280;11050;52.222;20.916;2022-12-20T00:16:20;100869.22;;;0.57;100.00
21779;BME280;11050;52.222;20.916;2022-12-20T00:18:51;100866.00;;;0.61;100.00
21779;BME280;11050;52.222;20.916;2022-12-20T00:21:17;100859.91;;;0.67;100.00
21779;BME280;11050;52.222;20.916;2022-12-20T00:23:43;100857.47;;;0.80;100.00
21779;BME280;11050;52.222;20.916;2022-12-20T00:26:14;100850.03;;;0.82;100.00
21779;BME280;11050;52.222;20.916;2022-12-20T00:28:41;100843.56;;;0.83;100.00
21779;BME280;11050;52.222;20.916;2022-12-20T00:31:09;100842.00;;;0.89;100.00
21779;BME280;11050;52.222;20.916;2022-12-20T00:33:37;100843.72;;;0.90;100.00
21779;BME280;11050;52.222;20.916;2022-12-20T00:36:05;100853.31;;;0.92;100.00
21779;BME280;11050;52.222;20.916;2022-12-20T00:38:32;100851.47;;;0.93;100.00
21779;BME280;11050;52.222;20.916;2022-12-20T00:41:04;100843.00;;;0.96;100.00
21779;BME280;11050;52.222;20.916;2022-12-20T00:43:31;100851.59;;;1.00;100.00
21779;BME280;11050;52.222;20.916;2022-12-20T00:45:58;100843.31;;;1.01;100.00
21779;BME280;11050;52.222;20.916;2022-12-20T00:48:24;100846.69;;;1.03;100.00
21779;BME280;11050;52.222;20.916;2022-12-20T00:50:51;100836.84;;;1.02;100.00
21779;BME280;11050;52.222;20.916;2022-12-20T00:53:17;100836.81;;;1.10;100.00
21779;BME280;11050;52.222;20.916;2022-12-20T00:55:46;100845.22;;;1.15;100.00
21779;BME280;11050;52.222;20.916;2022-12-20T00:58:12;100836.38;;;1.21;100.00
21779;BME280;11050;52.222;20.916;2022-12-20T01:00:39;100826.88;;;1.25;100.00
21779;BME280;11050;52.222;20.916;2022-12-20T01:03:05;100827.53;;;1.27;100.00
21779;BME280;11050;52.222;20.916;2022-12-20T01:05:31;100813.47;;;1.32;100.00
21779;BME280;11050;52.222;20.916;2022-12-20T01:07:57;100816.28;;;1.38;100.00
21779;BME280;11050;52.222;20.916;2022-12-20T01:10:23;100812.19;;;1.42;100.00
21779;BME280;11050;52.222;20.916;2022-12-20T01:12:50;100809.53;;;1.34;100.00
21779;BME280;11050;52.222;20.916;2022-12-20T01:15:16;100816.66;;;1.35;100.00
21779;BME280;11050;52.222;20.916;2022-12-20T01:17:42;100821.03;;;1.36;100.00
21779;BME280;11050;52.222;20.916;2022-12-20T01:20:08;100819.19;;;1.37;100.00
21779;BME280;11050;52.222;20.916;2022-12-20T01:22:34;100810.22;;;1.36;100.00
21779;BME280;11050;52.222;20.916;2022-12-20T01:25:00;100809.84;;;1.39;100.00
21779;BME280;11050;52.222;20.916;2022-12-20T01:27:27;100809.78;;;1.47;100.00
21779;BME280;11050;52.222;20.916;2022-12-20T01:29:53;100816.50;;;1.51;100.00
21779;BME280;11050;52.222;20.916;2022-12-20T01:32:20;100810.16;;;1.44;100.00
21779;BME280;11050;52.222;20.916;2022-12-20T01:34:45;100793.16;;;1.50;100.00
21779;BME280;11050;52.222;20.916;2022-12-20T01:37:12;100785.31;;;1.55;100.00
21779;BME280;11050;52.222;20.916;2022-12-20T01:39:37;100776.34;;;1.55;100.00
21779;BME280;11050;52.222;20.916;2022-12-20T01:42:04;100767.41;;;1.54;100.00
21779;BME280;11050;52.222;20.916;2022-12-20T01:46:56;100754.78;;;1.47;100.00
21779;BME280;11050;52.222;20.916;2022-12-20T01:49:29;100771.13;;;1.53;100.00
21779;BME280;11050;52.222;20.916;2022-12-20T01:52:14;100757.50;;;1.47;100.00
21779;BME280;11050;52.222;20.916;2022-12-20T01:57:53;100739.38;;;1.47;100.00
21779;BME280;11050;52.222;20.916;2022-12-20T02:00:20;100736.97;;;1.52;100.00
21779;BME280;11050;52.222;20.916;2022-12-20T02:02:48;100734.16;;;1.60;100.00
21779;BME280;11050;52.222;20.916;2022-12-20T02:05:19;100729.78;;;1.59;100.00
21779;BME280;11050;52.222;20.916;2022-12-20T02:07:50;100731.53;;;1.52;100.00
21779;BME280;11050;52.222;20.916;2022-12-20T02:10:19;100731.94;;;1.64;100.00
21779;BME280;11050;52.222;20.916;2022-12-20T02:12:50;100736.59;;;1.70;100.00
21779;BME280;11050;52.222;20.916;2022-12-20T02:18:42;100719.22;;;1.64;100.00
21779;BME280;11050;52.222;20.916;2022-12-20T02:21:56;100718.47;;;1.70;100.00
21779;BME280;11050;52.222;20.916;2022-12-20T02:27:41;100714.09;;;1.69;100.00
21779;BME280;11050;52.222;20.916;2022-12-20T02:30:19;100717.53;;;1.78;100.00
21779;BME280;11050;52.222;20.916;2022-12-20T02:35:23;100716.03;;;1.75;100.00
21779;BME280;11050;52.222;20.916;2022-12-20T02:37:57;100710.00;;;1.73;100.00
21779;BME280;11050;52.222;20.916;2022-12-20T02:40:39;100708.75;;;1.76;100.00
21779;BME280;11050;52.222;20.916;2022-12-20T02:43:08;100711.09;;;1.79;100.00
21779;BME280;11050;52.222;20.916;2022-12-20T02:45:56;100715.00;;;1.91;100.00
21779;BME280;11050;52.222;20.916;2022-12-20T02:48:27;100712.09;;;1.92;100.00
21779;BME280;11050;52.222;20.916;2022-12-20T02:50:57;100708.75;;;1.90;100.00
21779;BME280;11050;52.222;20.916;2022-12-20T02:53:25;100706.59;;;2.01;100.00
21779;BME280;11050;52.222;20.916;2022-12-20T02:58:37;100704.72;;;2.01;100.00
21779;BME280;11050;52.222;20.916;2022-12-20T03:01:13;100698.84;;;1.98;100.00
21779;BME280;11050;52.222;20.916;2022-12-20T03:03:41;100696.41;;;2.03;100.00
21779;BME280;11050;52.222;20.916;2022-12-20T03:06:07;100696.41;;;2.03;100.00
21779;BME280;11050;52.222;20.916;2022-12-20T03:08:32;100689.78;;;2.05;100.00
21779;BME280;11050;52.222;20.916;2022-12-20T03:10:58;100687.88;;;2.06;100.00
21779;BME280;11050;52.222;20.916;2022-12-20T03:13:25;100678.84;;;1.99;100.00
21779;BME280;11050;52.222;20.916;2022-12-20T03:15:51;100676.47;;;2.10;100.00
21779;BME280;11050;52.222;20.916;2022-12-20T03:18:17;100681.59;;;2.20;100.00
21779;BME280;11050;52.222;20.916;2022-12-20T03:20:43;100688.31;;;2.24;100.00
21779;BME280;11050;52.222;20.916;2022-12-20T03:23:09;100693.50;;;2.19;100.00
21779;BME280;11050;52.222;20.916;2022-12-20T03:25:34;100706.25;;;2.25;100.00
21779;BME280;11050;52.222;20.916;2022-12-20T03:28:00;100701.22;;;2.22;100.00
21779;BME280;11050;52.222;20.916;2022-12-20T03:30:26;100703.53;;;2.25;100.00
21779;BME280;11050;52.222;20.916;2022-12-20T03:32:52;100690.66;;;2.27;100.00
21779;BME280;11050;52.222;20.916;2022-12-20T03:35:17;100676.06;;;2.28;100.00
21779;BME280;11050;52.222;20.916;2022-12-20T03:37:43;100687.16;;;2.33;100.00
21779;BME280;11050;52.222;20.916;2022-12-20T03:40:10;100676.53;;;2.31;100.00
21779;BME280;11050;52.222;20.916;2022-12-20T03:42:36;100664.53;;;2.40;100.00
21779;BME280;11050;52.222;20.916;2022-12-20T03:45:03;100665.38;;;2.41;100.00
21779;BME280;11050;52.222;20.916;2022-12-20T03:47:29;100676.88;;;2.43;100.00
21779;BME280;11050;52.222;20.916;2022-12-20T03:49:54;100675.44;;;2.47;100.00
21779;BME280;11050;52.222;20.916;2022-12-20T03:52:20;100685.66;;;2.45;100.00
21779;BME280;11050;52.222;20.916;2022-12-20T03:54:46;100669.50;;;2.37;100.00
21779;BME280;11050;52.222;20.916;2022-12-20T03:57:12;100682.50;;;2.41;100.00
21779;BME280;11050;52.222;20.916;2022-12-20T03:59:37;100678.06;;;2.40;100.00
21779;BME280;11050;52.222;20.916;2022-12-20T04:02:03;100684.25;;;2.49;100.00
21779;BME280;11050;52.222;20.916;2022-12-20T04:04:29;100691.97;;;2.52;100.00
21779;BME280;11050;52.222;20.916;2022-12-20T04:06:55;100677.56;;;2.51;100.00
21779;BME280;11050;52.222;20.916;2022-12-20T04:09:21;100674.34;;;2.41;100.00
21779;BME280;11050;52.222;20.916;2022-12-20T04:11:46;100685.72;;;2.51;100.00
21779;BME280;11050;52.222;20.916;2022-12-20T04:14:12;100679.84;;;2.48;100.00
21779;BME280;11050;52.222;20.916;2022-12-20T04:16:38;100665.63;;;2.46;100.00
21779;BME280;11050;52.222;20.916;2022-12-20T04:19:04;100662.59;;;2.55;100.00
21779;BME280;11050;52.222;20.916;2022-12-20T04:21:32;100641.00;;;2.47;100.00
21779;BME280;11050;52.222;20.916;2022-12-20T04:24:01;100644.44;;;2.56;100.00
21779;BME280;11050;52.222;20.916;2022-12-20T04:26:27;100648.81;;;2.57;100.00
21779;BME280;11050;52.222;20.916;2022-12-20T04:28:53;100653.03;;;2.59;100.00
21779;BME280;11050;52.222;20.916;2022-12-20T04:31:19;100656.06;;;2.50;100.00
21779;BME280;11050;52.222;20.916;2022-12-20T04:33:46;100640.75;;;2.42;100.00
21779;BME280;11050;52.222;20.916;2022-12-20T04:36:11;100646.25;;;2.49;100.00
21779;BME280;11050;52.222;20.916;2022-12-20T04:38:37;100654.13;;;2.44;100.00
21779;BME280;11050;52.222;20.916;2022-12-20T04:41:03;100666.28;;;2.48;100.00
21779;BME280;11050;52.222;20.916;2022-12-20T04:43:29;100658.78;;;2.50;100.00
21779;BME280;11050;52.222;20.916;2022-12-20T04:45:55;100664.66;;;2.53;100.00
21779;BME280;11050;52.222;20.916;2022-12-20T04:48:23;100669.88;;;2.55;100.00
21779;BME280;11050;52.222;20.916;2022-12-20T04:50:52;100672.16;;;2.51;100.00
21779;BME280;11050;52.222;20.916;2022-12-20T04:53:19;100670.28;;;2.52;100.00
21779;BME280;11050;52.222;20.916;2022-12-20T04:56:04;100668.41;;;2.52;100.00
21779;BME280;11050;52.222;20.916;2022-12-20T04:58:31;100671.94;;;2.53;100.00
21779;BME280;11050;52.222;20.916;2022-12-20T05:00:56;100662.78;;;2.54;100.00
21779;BME280;11050;52.222;20.916;2022-12-20T05:03:24;100659.63;;;2.50;100.00
21779;BME280;11050;52.222;20.916;2022-12-20T05:05:51;100662.25;;;2.44;100.00
21779;BME280;11050;52.222;20.916;2022-12-20T05:08:17;100641.59;;;2.43;100.00
21779;BME280;11050;52.222;20.916;2022-12-20T05:10:43;100634.94;;;2.45;100.00
21779;BME280;11050;52.222;20.916;2022-12-20T05:13:10;100640.84;;;2.49;100.00
21779;BME280;11050;52.222;20.916;2022-12-20T05:15:36;100643.59;;;2.55;100.00
21779;BME280;11050;52.222;20.916;2022-12-20T05:18:02;100630.28;;;2.60;100.00
21779;BME280;11050;52.222;20.916;2022-12-20T05:20:29;100645.34;;;2.63;100.00
21779;BME280;11050;52.222;20.916;2022-12-20T05:22:56;100653.34;;;2.71;100.00
21779;BME280;11050;52.222;20.916;2022-12-20T05:25:49;100645.25;;;2.77;100.00
21779;BME280;11050;52.222;20.916;2022-12-20T05:28:34;100627.53;;;2.75;100.00
21779;BME280;11050;52.222;20.916;2022-12-20T05:31:01;100638.41;;;2.81;100.00
21779;BME280;11050;52.222;20.916;2022-12-20T05:33:27;100623.38;;;2.79;100.00
21779;BME280;11050;52.222;20.916;2022-12-20T05:35:54;100620.84;;;2.77;100.00
21779;BME280;11050;52.222;20.916;2022-12-20T05:38:20;100612.06;;;2.75;100.00
21779;BME280;11050;52.222;20.916;2022-12-20T05:40:47;100632.41;;;2.86;100.00
21779;BME280;11050;52.222;20.916;2022-12-20T05:43:14;100634.34;;;2.92;100.00
21779;BME280;11050;52.222;20.916;2022-12-20T05:45:44;100634.94;;;2.87;100.00
21779;BME280;11050;52.222;20.916;2022-12-20T05:48:10;100637.44;;;2.89;100.00
21779;BME280;11050;52.222;20.916;2022-12-20T05:50:36;100638.09;;;2.91;100.00
21779;BME280;11050;52.222;20.916;2022-12-20T05:53:02;100636.25;;;2.98;100.00
21779;BME280;11050;52.222;20.916;2022-12-20T05:55:27;100635.81;;;2.95;100.00
21779;BME280;11050;52.222;20.916;2022-12-20T05:57:53;100635.81;;;2.95;100.00
21779;BME280;11050;52.222;20.916;2022-12-20T06:00:19;100641.03;;;2.96;100.00
21779;BME280;11050;52.222;20.916;2022-12-20T06:02:45;100638.78;;;3.00;100.00
21779;BME280;11050;52.222;20.916;2022-12-20T06:05:11;100634.38;;;2.99;100.00
21779;BME280;11050;52.222;20.916;2022-12-20T06:07:37;100633.94;;;2.95;100.00
21779;BME280;11050;52.222;20.916;2022-12-20T06:10:03;100636.84;;;2.94;100.00
21779;BME280;11050;52.222;20.916;2022-12-20T06:12:28;100633.94;;;2.95;100.00
21779;BME280;11050;52.222;20.916;2022-12-20T06:14:54;100638.53;;;2.95;100.00
21779;BME280;11050;52.222;20.916;2022-12-20T06:17:20;100635.59;;;2.96;100.00
21779;BME280;11050;52.222;20.916;2022-12-20T06:19:46;100636.84;;;2.94;100.00
21779;BME280;11050;52.222;20.916;2022-12-20T06:22:12;100625.94;;;2.87;100.00
21779;BME280;11050;52.222;20.916;2022-12-20T06:24:38;100644.41;;;2.98;100.00
21779;BME280;11050;52.222;20.916;2022-12-20T06:27:04;100641.03;;;2.96;100.00
21779;BME280;11050;52.222;20.916;2022-12-20T06:29:32;100631.22;;;2.95;100.00
21779;BME280;11050;52.222;20.916;2022-12-20T06:31:58;100644.41;;;2.98;100.00
21779;BME280;11050;52.222;20.916;2022-12-20T06:34:24;100626.84;;;2.94;100.00
21779;BME280;11050;52.222;20.916;2022-12-20T06:36:50;100635.22;;;2.99;100.00
21779;BME280;11050;52.222;20.916;2022-12-20T06:39:16;100642.97;;;3.02;100.00
21779;BME280;11050;52.222;20.916;2022-12-20T06:41:41;100630.81;;;2.98;100.00
21779;BME280;11050;52.222;20.916;2022-12-20T06:44:07;100637.75;;;3.01;100.00
21779;BME280;11050;52.222;20.916;2022-12-20T06:46:33;100638.19;;;3.04;100.00
21779;BME280;11050;52.222;20.916;2022-12-20T06:48:59;100637.81;;;3.07;100.00
21779;BME280;11050;52.222;20.916;2022-12-20T06:51:25;100644.50;;;3.11;100.00
21779;BME280;11050;52.222;20.916;2022-12-20T06:53:51;100645.75;;;3.09;100.00
21779;BME280;11050;52.222;20.916;2022-12-20T06:56:17;100634.91;;;3.15;100.00
21779;BME280;11050;52.222;20.916;2022-12-20T06:58:44;100651.28;;;3.22;100.00
21779;BME280;11050;52.222;20.916;2022-12-20T07:01:11;100660.44;;;3.21;100.00
21779;BME280;11050;52.222;20.916;2022-12-20T07:03:36;100642.50;;;3.26;100.00
21779;BME280;11050;52.222;20.916;2022-12-20T07:06:02;100655.47;;;3.24;100.00
21779;BME280;11050;52.222;20.916;2022-12-20T07:08:28;100655.72;;;3.29;100.00
21779;BME280;11050;52.222;20.916;2022-12-20T07:10:54;100650.09;;;3.31;100.00
21779;BME280;11050;52.222;20.916;2022-12-20T07:13:21;100661.19;;;3.36;100.00
21779;BME280;11050;52.222;20.916;2022-12-20T07:15:47;100652.03;;;3.43;100.00
21779;BME280;11050;52.222;20.916;2022-12-20T07:18:13;100659.81;;;3.46;100.00
21779;BME280;11050;52.222;20.916;2022-12-20T07:20:39;100657.09;;;3.46;100.00
21779;BME280;11050;52.222;20.916;2022-12-20T07:23:05;100651.69;;;3.53;100.00
21779;BME280;11050;52.222;20.916;2022-12-20T07:25:30;100649.00;;;3.59;100.00
21779;BME280;11050;52.222;20.916;2022-12-20T07:27:56;100654.03;;;3.62;100.00
21779;BME280;11050;52.222;20.916;2022-12-20T07:30:25;100642.78;;;3.65;100.00
21779;BME280;11050;52.222;20.916;2022-12-20T07:32:51;100649.50;;;3.69;100.00
21779;BME280;11050;52.222;20.916;2022-12-20T07:35:17;100643.66;;;3.79;100.00
21779;BME280;11050;52.222;20.916;2022-12-20T07:37:42;100658.75;;;3.81;100.00
21779;BME280;11050;52.222;20.916;2022-12-20T07:40:10;100656.47;;;3.85;100.00
21779;BME280;11050;52.222;20.916;2022-12-20T07:42:36;100647.50;;;3.84;100.00
21779;BME280;11050;52.222;20.916;2022-12-20T07:45:02;100650.44;;;3.90;100.00
21779;BME280;11050;52.222;20.916;2022-12-20T07:47:28;100638.31;;;3.92;100.00
21779;BME280;11050;52.222;20.916;2022-12-20T07:49:54;100648.19;;;4.06;100.00
21779;BME280;11050;52.222;20.916;2022-12-20T07:52:23;100644.22;;;4.09;100.00
21779;BME280;11050;52.222;20.916;2022-12-20T07:54:57;100641.31;;;4.10;100.00
21779;BME280;11050;52.222;20.916;2022-12-20T07:57:33;100649.25;;;4.12;100.00
21779;BME280;11050;52.222;20.916;2022-12-20T08:00:02;100647.16;;;4.14;100.00
21779;BME280;11050;52.222;20.916;2022-12-20T08:02:35;100645.50;;;4.19;100.00
21779;BME280;11050;52.222;20.916;2022-12-20T08:05:05;100658.25;;;4.19;100.00
21779;BME280;11050;52.222;20.916;2022-12-20T08:07:34;100651.16;;;4.18;100.00
21779;BME280;11050;52.222;20.916;2022-12-20T08:10:01;100654.31;;;4.15;100.00
21779;BME280;11050;52.222;20.916;2022-12-20T08:12:28;100661.84;;;4.19;100.00
21779;BME280;11050;52.222;20.916;2022-12-20T08:14:56;100662.25;;;4.23;100.00
21779;BME280;11050;52.222;20.916;2022-12-20T08:17:23;100652.81;;;4.19;100.00
21779;BME280;11050;52.222;20.916;2022-12-20T08:19:48;100650.75;;;4.14;100.00
21779;BME280;11050;52.222;20.916;2022-12-20T08:22:17;100655.53;;;4.19;100.00
21779;BME280;11050;52.222;20.916;2022-12-20T08:24:44;100647.81;;;4.16;100.00
21779;BME280;11050;52.222;20.916;2022-12-20T08:27:10;100652.00;;;4.18;100.00
21779;BME280;11050;52.222;20.916;2022-12-20T08:29:36;100646.56;;;4.18;100.00
21779;BME280;11050;52.222;20.916;2022-12-20T08:32:01;100647.38;;;4.19;100.00
21779;BME280;11050;52.222;20.916;2022-12-20T08:34:27;100631.69;;;4.21;100.00
21779;BME280;11050;52.222;20.916;2022-12-20T08:36:53;100647.63;;;4.30;100.00
21779;BME280;11050;52.222;20.916;2022-12-20T08:39:19;100644.53;;;4.33;100.00
21779;BME280;11050;52.222;20.916;2022-12-20T08:41:44;100634.69;;;4.39;100.00
21779;BME280;11050;52.222;20.916;2022-12-20T08:44:10;100633.03;;;4.51;100.00
21779;BME280;11050;52.222;20.916;2022-12-20T08:46:36;100635.13;;;4.62;99.96
21779;BME280;11050;52.222;20.916;2022-12-20T08:49:03;100647.75;;;4.76;99.15
21779;BME280;11050;52.222;20.916;2022-12-20T08:51:29;100645.25;;;4.88;97.09
21779;BME280;11050;52.222;20.916;2022-12-20T08:53:55;100638.31;;;4.98;96.76
21779;BME280;11050;52.222;20.916;2022-12-20T08:56:21;100639.34;;;5.04;95.70
21779;BME280;11050;52.222;20.916;2022-12-20T08:58:47;100641.03;;;5.18;95.06
21779;BME280;11050;52.222;20.916;2022-12-20T09:01:16;100637.69;;;5.22;94.08
21779;BME280;11050;52.222;20.916;2022-12-20T09:03:44;100646.06;;;5.27;93.18
21779;BME280;11050;52.222;20.916;2022-12-20T09:06:14;100638.09;;;5.19;93.24
21779;BME280;11050;52.222;20.916;2022-12-20T09:08:40;100638.75;;;5.28;92.42
21779;BME280;11050;52.222;20.916;2022-12-20T09:11:20;100643.09;;;5.48;91.57
21779;BME280;11050;52.222;20.916;2022-12-20T09:13:49;100647.28;;;5.57;91.38
21779;BME280;11050;52.222;20.916;2022-12-20T09:16:19;100640.72;;;5.71;89.82
21779;BME280;11050;52.222;20.916;2022-12-20T09:18:54;100638.84;;;5.78;88.69
21779;BME280;11050;52.222;20.916;2022-12-20T09:21:21;100643.59;;;5.96;87.53
21779;BME280;11050;52.222;20.916;2022-12-20T09:23:50;100622.41;;;5.98;86.37
21779;BME280;11050;52.222;20.916;2022-12-20T09:26:19;100636.22;;;6.10;85.84
21779;BME280;11050;52.222;20.916;2022-12-20T09:28:47;100643.91;;;6.26;84.87
21779;BME280;11050;52.222;20.916;2022-12-20T09:31:16;100638.38;;;6.39;84.50
21779;BME280;11050;52.222;20.916;2022-12-20T09:33:42;100627.41;;;6.45;82.96
21779;BME280;11050;52.222;20.916;2022-12-20T09:36:15;100624.88;;;6.50;82.25
21779;BME280;11050;52.222;20.916;2022-12-20T09:38:42;100620.22;;;6.57;82.44
21779;BME280;11050;52.222;20.916;2022-12-20T09:41:28;100614.34;;;6.54;81.38
21779;BME280;11050;52.222;20.916;2022-12-20T09:43:56;100623.78;;;6.58;81.72
21779;BME280;11050;52.222;20.916;2022-12-20T09:46:24;100621.84;;;6.65;81.44
21779;BME280;11050;52.222;20.916;2022-12-20T09:48:51;100625.31;;;6.79;81.62
21779;BME280;11050;52.222;20.916;2022-12-20T09:59:55;100647.84;;;6.99;76.91
21779;BME280;11050;52.222;20.916;2022-12-20T10:02:24;100648.78;;;6.86;77.18
21779;BME280;11050;52.222;20.916;2022-12-20T10:04:52;100632.28;;;6.75;77.51
21779;BME280;11050;52.222;20.916;2022-12-20T10:07:42;100623.41;;;6.79;78.38
21779;BME280;11050;52.222;20.916;2022-12-20T10:16:44;100633.56;;;6.97;76.51
21779;BME280;11050;52.222;20.916;2022-12-20T10:22:17;100623.28;;;6.92;75.38
21779;BME280;11050;52.222;20.916;2022-12-20T10:24:58;100629.69;;;6.86;75.89
21779;BME280;11050;52.222;20.916;2022-12-20T10:27:26;100627.94;;;6.60;76.73
21779;BME280;11050;52.222;20.916;2022-12-20T10:29:52;100628.34;;;6.64;76.91
21779;BME280;11050;52.222;20.916;2022-12-20T10:32:22;100627.94;;;6.60;76.64
21779;BME280;11050;52.222;20.916;2022-12-20T10:34:57;100623.78;;;6.58;77.04
21779;BME280;11050;52.222;20.916;2022-12-20T10:37:24;100620.78;;;6.66;76.99
21779;BME280;11050;52.222;20.916;2022-12-20T10:39:51;100626.13;;;6.79;76.73
21779;BME280;11050;52.222;20.916;2022-12-20T10:42:38;100611.56;;;6.92;75.79
21779;BME280;11050;52.222;20.916;2022-12-20T10:45:33;100602.44;;;6.98;74.56
21779;BME280;11050;52.222;20.916;2022-12-20T10:48:03;100602.41;;;7.04;74.88
21779;BME280;11050;52.222;20.916;2022-12-20T10:50:29;100602.41;;;7.04;74.85
21779;BME280;11050;52.222;20.916;2022-12-20T10:53:23;100595.44;;;7.08;74.21
21779;BME280;11050;52.222;20.916;2022-12-20T10:55:51;100597.56;;;7.06;74.37
21779;BME280;11050;52.222;20.916;2022-12-20T10:58:37;100597.94;;;6.85;74.57
21779;BME280;11050;52.222;20.916;2022-12-20T11:01:17;100580.00;;;6.71;75.37
21779;BME280;11050;52.222;20.916;2022-12-20T11:04:06;100583.53;;;6.71;76.25
21779;BME280;11050;52.222;20.916;2022-12-20T11:06:46;100569.56;;;6.86;75.64
21779;BME280;11050;52.222;20.916;2022-12-20T11:12:15;100542.53;;;6.78;75.13
21779;BME280;11050;52.222;20.916;2022-12-20T11:14:44;100548.53;;;6.87;75.95
21779;BME280;11050;52.222;20.916;2022-12-20T11:17:30;100541.66;;;6.84;75.70
21779;BME280;11050;52.222;20.916;2022-12-20T11:37:19;100552.34;;;6.61;77.99
21779;BME280;11050;52.222;20.916;2022-12-20T11:51:52;100528.00;;;6.59;77.18
21779;BME280;11050;52.222;20.916;2022-12-20T11:54:33;100526.88;;;6.67;76.74
21779;BME280;11050;52.222;20.916;2022-12-20T11:57:26;100519.94;;;6.89;76.23
21779;BME280;11050;52.222;20.916;2022-12-20T12:00:00;100516.25;;;7.02;74.27
21779;BME280;11050;52.222;20.916;2022-12-20T12:02:50;100536.41;;;7.25;73.50
21779;BME280;11050;52.222;20.916;2022-12-20T12:05:41;100530.50;;;7.46;72.36
21779;BME280;11050;52.222;20.916;2022-12-20T12:08:18;100536.78;;;7.65;71.33
21779;BME280;11050;52.222;20.916;2022-12-20T12:11:23;100534.44;;;7.98;70.48
21779;BME280;11050;52.222;20.916;2022-12-20T12:13:52;100534.84;;;8.31;68.40
21779;BME280;11050;52.222;20.916;2022-12-20T12:16:27;100527.91;;;9.28;65.23
21779;BME280;11050;52.222;20.916;2022-12-20T12:18:58;100526.25;;;9.90;60.65
21779;BME280;11050;52.222;20.916;2022-12-20T12:21:43;100526.06;;;9.68;60.24
21779;BME280;11050;52.222;20.916;2022-12-20T12:24:40;100532.56;;;9.27;62.13
21779;BME280;11050;52.222;20.916;2022-12-20T12:27:25;100525.66;;;9.02;62.35
21779;BME280;11050;52.222;20.916;2022-12-20T12:29:53;100523.50;;;8.81;63.70
21779;BME280;11050;52.222;20.916;2022-12-20T12:35:35;100522.72;;;8.39;65.28
21779;BME280;11050;52.222;20.916;2022-12-20T12:38:33;100525.19;;;8.29;65.96
21779;BME280;11050;52.222;20.916;2022-12-20T12:43:53;100528.97;;;8.81;64.70
21779;BME280;11050;52.222;20.916;2022-12-20T12:46:33;100529.09;;;9.32;62.61
21779;BME280;11050;52.222;20.916;2022-12-20T12:49:16;100514.06;;;9.34;61.75
21779;BME280;11050;52.222;20.916;2022-12-20T12:51:51;100531.03;;;8.97;62.24
21779;BME280;11050;52.222;20.916;2022-12-20T12:54:23;100516.91;;;8.47;64.73
21779;BME280;11050;52.222;20.916;2022-12-20T12:56:52;100515.47;;;8.15;66.35
21779;BME280;11050;52.222;20.916;2022-12-20T13:04:59;100522.03;;;7.30;70.41
21779;BME280;11050;52.222;20.916;2022-12-20T13:09:59;100513.03;;;6.87;73.19
21779;BME280;11050;52.222;20.916;2022-12-20T13:20:33;100527.00;;;6.54;76.06
21779;BME280;11050;52.222;20.916;2022-12-20T13:25:48;100536.72;;;6.43;77.30
21779;BME280;11050;52.222;20.916;2022-12-20T13:33:45;100538.31;;;6.26;78.86
21779;BME280;11050;52.222;20.916;2022-12-20T13:46:57;100547.34;;;5.96;81.69
21779;BME280;11050;52.222;20.916;2022-12-20T13:49:28;100539.63;;;5.86;82.78
21779;BME280;11050;52.222;20.916;2022-12-20T13:52:19;100549.69;;;5.86;82.97
21779;BME280;11050;52.222;20.916;2022-12-20T13:54:52;100551.13;;;5.82;83.21
21779;BME280;11050;52.222;20.916;2022-12-20T13:57:41;100539.59;;;5.79;83.66
21779;BME280;11050;52.222;20.916;2022-12-20T14:00:24;100527.44;;;5.75;84.32
21779;BME280;11050;52.222;20.916;2022-12-20T14:02:52;100519.53;;;5.67;84.37
21779;BME280;11050;52.222;20.916;2022-12-20T14:05:25;100513.66;;;5.64;84.88
21779;BME280;11050;52.222;20.916;2022-12-20T14:08:08;100504.09;;;5.48;86.46
21779;BME280;11050;52.222;20.916;2022-12-20T14:10:37;100519.56;;;5.54;86.89
21779;BME280;11050;52.222;20.916;2022-12-20T14:15:45;100502.63;;;5.46;86.71
21779;BME280;11050;52.222;20.916;2022-12-20T14:18:19;100509.34;;;5.43;87.00
21779;BME280;11050;52.222;20.916;2022-12-20T14:21:01;100517.72;;;5.48;86.97
21779;BME280;11050;52.222;20.916;2022-12-20T14:23:43;100511.44;;;5.48;86.99
21779;BME280;11050;52.222;20.916;2022-12-20T14:26:16;100510.81;;;5.46;87.74
21779;BME280;11050;52.222;20.916;2022-12-20T14:28:46;100508.31;;;5.44;86.99
21779;BME280;11050;52.222;20.916;2022-12-20T14:36:42;100513.78;;;5.38;89.18
21779;BME280;11050;52.222;20.916;2022-12-20T14:39:32;100515.25;;;5.34;89.27
21779;BME280;11050;52.222;20.916;2022-12-20T14:44:34;100509.34;;;5.43;89.86
21779;BME280;11050;52.222;20.916;2022-12-20T14:47:26;100506.44;;;5.38;88.98
21779;BME280;11050;52.222;20.916;2022-12-20T14:50:04;100515.25;;;5.40;89.10
21779;BME280;11050;52.222;20.916;2022-12-20T14:55:03;100509.84;;;5.27;89.51
21779;BME280;11050;52.222;20.916;2022-12-20T15:11:01;100470.31;;;4.92;91.33
21779;BME280;11050;52.222;20.916;2022-12-20T15:16:14;100478.75;;;4.84;92.11